Watertown Regional Airport
KATY : now visible

Airfield :











YOU CAN JOIN US ON...

 
LOGIN :

Register | Disclaimer

   EN    FR    IT 

 









Legend :    VFR   Marginal VFR   IFR   Intensive IFR   Very Intensive IFR
Visi :
Ceiling :
>= 8 km
>= 3000ft
5 to 8 km
1000 to 3000 ft
1500m to 5 km
500 to 1000 ft
800 to 1500m
200 to 500 ft
< 800m
< 200 ft
Symbols :   Thunderstorms  Fog  Heavy snow  Heavy precipitations  Wind > 20 kt






- Airport Elevation : 1749 ft
- IATA code : ATY


KATY - Watertown Regional

CURRENT METAR :
  • 051753Z AUTO 15007KT 10SM OVC020 19/15 A2999 RMK AO2 SLP150 T01890150 10200 20150 55002

EXPIRED METARs :
  • 051653Z AUTO 18010KT 10SM OVC022 19/15 A2999 RMK AO2 SLP149 T01940150
  • 051602Z AUTO 18012KT 10SM BKN019 OVC032 19/14 A2999 RMK AO2 T01940144
  • 051553Z AUTO 16015G22KT 10SM SCT018 OVC033 19/14 A2999 RMK AO2 PK WND 17026/1502 SLP151 T01940144

TAF KATY
Valid from the 05 at 18:00 until the 06 at 18:00 UTC


051726Z 0518/0618 18010KT P6SM OVC022
FM052200 17008KT P6SM VCTS SCT027CB BKN035
FM061200 11005KT 5SM BR BKN011
FM061700 16007KT P6SM SCT150
KZMP FIR / North America



MET'MAP, your aeronautical weather chart ! - Copyright ORBIFLY December 2007 - Disclaimer

ORBIFLY MET'MAP TEAM :

Programming & Development : Alexandra Zaïnal
Concept & original design : Baudouin d'Aumeries
Assistance for programming : Marc-Olivier Méhu
Technical & hardware support : Manuel Goepfert

Contact : metmap@orbifly.com




SOURCES & CREDITS :

   NOAA       Earth
Advisory